createdAt,value
2023-01-04T00:02:22.432Z,7.76
2023-01-04T00:04:49.020Z,7.84
2023-01-04T00:07:15.898Z,7.76
2023-01-04T00:09:42.452Z,7.75
2023-01-04T00:12:08.987Z,7.73
2023-01-04T00:14:35.534Z,7.56
2023-01-04T00:17:02.036Z,7.76
2023-01-04T00:19:28.549Z,7.93
2023-01-04T00:21:55.119Z,7.85
2023-01-04T00:24:23.785Z,7.90
2023-01-04T00:26:50.368Z,7.87
2023-01-04T00:29:17.170Z,7.94
2023-01-04T00:31:45.080Z,7.98
2023-01-04T00:34:14.675Z,7.90
2023-01-04T00:36:41.419Z,8.05
2023-01-04T00:39:33.163Z,8.05
2023-01-04T00:42:05.124Z,7.95
2023-01-04T00:44:33.982Z,7.86
2023-01-04T00:47:02.435Z,8.03
2023-01-04T00:49:30.260Z,7.95
2023-01-04T00:51:57.327Z,8.09
2023-01-04T00:54:24.233Z,8.09
2023-01-04T00:56:50.860Z,8.13
2023-01-04T00:59:20.192Z,8.12
2023-01-04T01:01:47.074Z,8.16
2023-01-04T01:04:16.382Z,8.06
2023-01-04T01:06:43.072Z,8.03
2023-01-04T01:09:10.099Z,8.19
2023-01-04T01:11:38.277Z,8.00
2023-01-04T01:14:05.641Z,8.25
2023-01-04T01:16:53.621Z,8.08
2023-01-04T01:19:18.771Z,8.42
2023-01-04T01:21:45.406Z,8.35
2023-01-04T01:24:23.538Z,8.34
2023-01-04T01:26:50.310Z,8.55
2023-01-04T01:29:16.971Z,8.57
2023-01-04T01:31:43.628Z,8.65
2023-01-04T01:34:10.261Z,8.54
2023-01-04T01:36:37.164Z,8.60
2023-01-04T01:39:05.048Z,8.49
2023-01-04T01:41:35.389Z,8.61
2023-01-04T01:44:06.863Z,8.52
2023-01-04T01:46:42.875Z,8.58
2023-01-04T01:49:24.426Z,8.63
2023-01-04T01:51:53.288Z,8.58
2023-01-04T01:54:26.875Z,8.82
2023-01-04T01:56:57.886Z,8.66
2023-01-04T01:59:25.972Z,8.80
2023-01-04T02:01:52.698Z,8.78
2023-01-04T02:04:19.669Z,8.93
2023-01-04T02:06:53.168Z,8.79
2023-01-04T02:09:21.477Z,8.87
2023-01-04T02:11:48.043Z,8.82
2023-01-04T02:14:27.356Z,8.94
2023-01-04T02:16:58.908Z,8.82
2023-01-04T02:19:56.789Z,8.73
2023-01-04T02:22:44.808Z,8.63
2023-01-04T02:25:14.398Z,8.77
2023-01-04T02:27:47.115Z,8.58
2023-01-04T02:30:32.222Z,8.57
2023-01-04T02:33:28.612Z,8.67
2023-01-04T02:36:32.408Z,8.54
2023-01-04T02:39:30.921Z,8.76
2023-01-04T02:42:01.134Z,8.60
2023-01-04T02:44:53.804Z,8.53
2023-01-04T02:47:46.532Z,8.56
2023-01-04T02:50:50.093Z,8.46
2023-01-04T02:53:31.690Z,8.49
2023-01-04T02:56:38.356Z,8.56
2023-01-04T02:59:41.732Z,8.67
2023-01-04T03:02:48.219Z,8.53
2023-01-04T03:06:06.337Z,8.34
2023-01-04T03:08:47.623Z,8.59
2023-01-04T03:11:35.243Z,8.68
2023-01-04T03:14:32.269Z,8.40
2023-01-04T03:17:04.172Z,8.40
2023-01-04T03:19:50.287Z,8.45
2023-01-04T03:22:39.563Z,8.56
2023-01-04T03:25:27.745Z,8.70
2023-01-04T03:28:15.169Z,8.63
2023-01-04T03:31:09.813Z,8.74
2023-01-04T03:33:56.022Z,8.51
2023-01-04T03:36:45.036Z,8.52
2023-01-04T03:40:00.668Z,8.47
2023-01-04T03:42:52.143Z,8.78
2023-01-04T03:45:42.561Z,8.85
2023-01-04T03:48:29.805Z,8.83
2023-01-04T03:51:15.091Z,8.78
2023-01-04T03:53:49.522Z,8.89
2023-01-04T03:56:18.603Z,8.90
2023-01-04T03:58:45.716Z,8.96
2023-01-04T04:01:13.100Z,8.96
2023-01-04T04:03:58.844Z,8.84
2023-01-04T04:06:44.217Z,9.05
2023-01-04T04:09:10.823Z,9.02
2023-01-04T04:11:37.339Z,9.18
2023-01-04T04:14:04.097Z,9.14
2023-01-04T04:16:30.836Z,9.20
2023-01-04T04:18:57.543Z,9.23
2023-01-04T04:21:24.275Z,9.22
2023-01-04T04:23:50.997Z,9.26
2023-01-04T04:26:17.958Z,9.16
2023-01-04T04:28:44.569Z,9.24
2023-01-04T04:31:11.471Z,9.42
2023-01-04T04:33:38.378Z,9.44
2023-01-04T04:36:05.870Z,9.37
2023-01-04T04:38:32.536Z,9.38
2023-01-04T04:41:18.017Z,9.67
2023-01-04T04:43:44.637Z,9.58
2023-01-04T04:46:11.186Z,9.65
2023-01-04T04:48:37.814Z,9.44
2023-01-04T04:51:04.569Z,9.55
2023-01-04T04:53:31.194Z,9.61
2023-01-04T04:55:57.975Z,9.64
2023-01-04T04:58:24.684Z,9.73
2023-01-04T05:00:51.354Z,9.62
2023-01-04T05:03:18.088Z,9.54
2023-01-04T05:05:44.706Z,9.75
2023-01-04T05:08:11.415Z,9.59
2023-01-04T05:10:38.709Z,9.59
2023-01-04T05:13:07.430Z,9.56
2023-01-04T05:15:36.995Z,9.64
2023-01-04T05:18:04.815Z,9.61
2023-01-04T05:20:31.557Z,9.60
2023-01-04T05:22:58.302Z,9.63
2023-01-04T05:25:25.133Z,9.54
2023-01-04T05:27:51.765Z,9.74
2023-01-04T05:30:37.391Z,9.76
2023-01-04T05:33:05.306Z,9.55
2023-01-04T05:35:32.361Z,9.77
2023-01-04T05:37:59.079Z,9.62
2023-01-04T05:40:25.757Z,9.70
2023-01-04T05:42:52.421Z,9.72
2023-01-04T05:45:21.049Z,9.72
2023-01-04T05:47:51.774Z,9.62
2023-01-04T05:50:20.181Z,9.73
2023-01-04T05:52:46.982Z,9.79
2023-01-04T05:55:14.081Z,9.77
2023-01-04T05:57:41.038Z,10.05
2023-01-04T06:00:09.834Z,9.90
2023-01-04T06:02:39.407Z,9.95
2023-01-04T06:05:06.765Z,9.91
2023-01-04T06:07:33.616Z,9.96
2023-01-04T06:10:00.247Z,9.90
2023-01-04T06:12:26.792Z,10.02
2023-01-04T06:14:53.528Z,9.87
2023-01-04T06:17:20.095Z,10.00
2023-01-04T06:19:46.924Z,10.07
2023-01-04T06:22:13.534Z,10.14
2023-01-04T06:24:40.046Z,9.82
2023-01-04T06:27:06.636Z,9.84
2023-01-04T06:29:33.185Z,10.11
2023-01-04T06:31:59.794Z,10.06
2023-01-04T06:34:30.748Z,9.95
2023-01-04T06:36:58.127Z,10.07
2023-01-04T06:39:24.721Z,10.07
2023-01-04T06:41:51.446Z,10.12
2023-01-04T06:44:18.051Z,10.14
2023-01-04T06:46:44.783Z,10.11
2023-01-04T06:49:11.437Z,10.12
2023-01-04T06:51:38.104Z,10.06
2023-01-04T06:54:04.648Z,10.17
2023-01-04T06:56:32.240Z,10.08
2023-01-04T06:58:59.594Z,10.03
2023-01-04T07:01:26.546Z,10.07
2023-01-04T07:03:53.144Z,9.99
2023-01-04T07:06:19.839Z,10.08
2023-01-04T07:08:46.393Z,9.95
2023-01-04T07:11:12.977Z,9.99
2023-01-04T07:13:39.572Z,9.91
2023-01-04T07:16:06.714Z,9.97
2023-01-04T07:18:33.360Z,9.90
2023-01-04T07:20:59.941Z,9.95
2023-01-04T07:23:26.493Z,9.92
2023-01-04T07:25:53.058Z,10.25
2023-01-04T07:28:38.571Z,10.08
2023-01-04T07:31:07.658Z,10.10
2023-01-04T07:33:34.465Z,10.01
2023-01-04T07:36:06.003Z,10.02
2023-01-04T07:38:36.063Z,10.03
2023-01-04T07:41:02.824Z,10.04
2023-01-04T07:43:29.642Z,9.99
2023-01-04T07:45:56.288Z,10.10
2023-01-04T07:48:23.077Z,10.12
2023-01-04T07:50:50.453Z,10.06
2023-01-04T07:53:17.249Z,9.94
2023-01-04T07:55:44.165Z,10.12
2023-01-04T07:58:10.736Z,10.03
2023-01-04T08:00:37.476Z,10.07
2023-01-04T08:03:04.283Z,10.11
2023-01-04T08:05:34.971Z,10.00
2023-01-04T08:08:01.894Z,9.91
2023-01-04T08:10:28.558Z,9.97
2023-01-04T08:12:55.125Z,10.07
2023-01-04T08:15:21.688Z,9.97
2023-01-04T08:17:48.323Z,10.10
2023-01-04T08:20:16.165Z,10.18
2023-01-04T08:22:43.643Z,10.20
2023-01-04T08:25:14.088Z,10.18
2023-01-04T08:27:41.769Z,10.23
2023-01-04T08:30:08.970Z,10.22
2023-01-04T08:32:35.486Z,10.28
2023-01-04T08:35:02.106Z,10.31
2023-01-04T08:37:30.013Z,10.27
2023-01-04T08:39:56.596Z,10.31
2023-01-04T08:42:30.740Z,10.11
2023-01-04T08:45:00.856Z,10.13
2023-01-04T08:47:53.143Z,10.28
2023-01-04T08:50:20.465Z,10.30
2023-01-04T08:52:47.346Z,10.35
2023-01-04T08:55:19.969Z,10.50
2023-01-04T08:57:49.811Z,10.47
2023-01-04T09:00:19.148Z,10.40
2023-01-04T09:02:45.830Z,10.34
2023-01-04T09:05:22.245Z,10.52
2023-01-04T09:07:49.927Z,10.59
2023-01-04T09:10:16.667Z,10.54
2023-01-04T09:12:43.246Z,10.47
2023-01-04T09:15:10.465Z,10.57
2023-01-04T09:17:46.460Z,10.50
2023-01-04T09:20:23.507Z,10.46
2023-01-04T09:22:50.247Z,10.45
2023-01-04T09:25:16.984Z,10.39
2023-01-04T09:27:44.261Z,10.56
2023-01-04T09:30:12.511Z,10.48
2023-01-04T09:32:39.041Z,10.53
2023-01-04T09:35:06.085Z,10.47
2023-01-04T09:37:32.623Z,10.53
2023-01-04T09:39:59.267Z,10.69
2023-01-04T09:42:37.300Z,10.55
2023-01-04T09:45:25.164Z,10.52
2023-01-04T09:48:05.238Z,10.67
2023-01-04T09:50:54.773Z,10.69
2023-01-04T09:53:24.368Z,10.38
2023-01-04T09:55:53.151Z,10.50
2023-01-04T09:58:41.603Z,10.61
2023-01-04T10:01:17.719Z,10.62
2023-01-04T10:04:04.840Z,10.71
2023-01-04T10:06:33.685Z,10.68
2023-01-04T10:09:06.407Z,10.62
2023-01-04T10:11:42.379Z,10.66
2023-01-04T10:14:14.901Z,10.54
2023-01-04T10:17:28.156Z,10.59
2023-01-04T10:23:43.796Z,10.53
2023-01-04T10:26:15.770Z,10.48
2023-01-04T10:28:48.296Z,10.68
2023-01-04T10:31:39.492Z,10.67
2023-01-04T10:34:28.534Z,10.63
2023-01-04T10:37:04.005Z,10.72
2023-01-04T10:39:33.457Z,10.81
2023-01-04T10:42:07.432Z,10.93
2023-01-04T10:44:45.686Z,10.77
2023-01-04T10:47:24.039Z,10.91
2023-01-04T10:49:55.689Z,10.91
2023-01-04T10:52:35.024Z,11.01
2023-01-04T10:55:12.703Z,11.00
2023-01-04T10:57:45.196Z,11.01
2023-01-04T11:00:28.645Z,10.99
2023-01-04T11:03:16.404Z,11.04
2023-01-04T11:05:53.892Z,11.16
2023-01-04T11:08:43.120Z,11.20
2023-01-04T11:11:15.551Z,11.22
2023-01-04T11:13:42.158Z,11.18
2023-01-04T11:16:08.994Z,11.34
2023-01-04T11:18:39.254Z,11.27
2023-01-04T11:21:12.990Z,11.23
2023-01-04T11:23:39.532Z,11.21
2023-01-04T11:26:16.054Z,11.19
2023-01-04T11:28:56.610Z,11.25
2023-01-04T11:31:25.977Z,11.25
2023-01-04T11:34:03.596Z,11.30
2023-01-04T11:36:36.137Z,11.40
2023-01-04T11:39:04.058Z,11.45
2023-01-04T11:41:30.722Z,11.31
2023-01-04T11:44:01.765Z,11.24
2023-01-04T11:46:30.309Z,11.39
2023-01-04T11:48:57.569Z,11.36
2023-01-04T11:51:25.790Z,11.38
2023-01-04T11:57:29.231Z,11.32
2023-01-04T12:00:19.614Z,11.30
2023-01-04T12:03:02.549Z,11.58
2023-01-04T12:05:32.010Z,11.56
2023-01-04T12:07:59.368Z,11.55
2023-01-04T12:10:28.487Z,11.65
2023-01-04T12:12:59.738Z,11.60
2023-01-04T12:15:38.707Z,11.61
2023-01-04T12:18:22.653Z,11.61
2023-01-04T12:20:49.275Z,11.53
2023-01-04T12:23:16.068Z,11.62
2023-01-04T12:25:46.643Z,11.70
2023-01-04T12:29:05.012Z,11.63
2023-01-04T12:31:33.479Z,11.86
2023-01-04T12:34:20.133Z,11.63
2023-01-04T12:37:04.908Z,11.53
2023-01-04T12:39:44.277Z,11.58
2023-01-04T12:42:13.113Z,11.65
2023-01-04T12:44:39.863Z,11.75
2023-01-04T12:48:09.636Z,11.88
2023-01-04T12:51:30.986Z,11.89
2023-01-04T12:54:49.713Z,11.91
2023-01-04T12:57:16.366Z,11.70
2023-01-04T12:59:56.303Z,11.77
2023-01-04T13:08:23.096Z,11.80
2023-01-04T13:14:33.146Z,11.91
2023-01-04T13:17:09.894Z,11.91
2023-01-04T13:19:38.272Z,12.03
2023-01-04T13:22:28.602Z,11.96
2023-01-04T13:24:59.596Z,11.82
2023-01-04T13:27:30.150Z,11.96
2023-01-04T13:29:56.729Z,11.96
2023-01-04T13:32:26.151Z,11.98
2023-01-04T13:35:08.373Z,12.11
2023-01-04T13:38:10.887Z,12.04
2023-01-04T13:40:49.121Z,12.16
2023-01-04T13:43:16.315Z,12.10
2023-01-04T13:45:45.886Z,12.08
2023-01-04T13:48:14.395Z,12.15
2023-01-04T13:50:49.586Z,12.08
2023-01-04T13:53:21.955Z,12.05
2023-01-04T13:56:20.412Z,12.02
2023-01-04T13:58:47.178Z,12.12
2023-01-04T14:01:16.689Z,12.01
2023-01-04T14:03:46.066Z,12.15
2023-01-04T14:06:26.837Z,12.15
2023-01-04T14:08:56.693Z,12.13
2023-01-04T14:11:46.624Z,12.16
2023-01-04T14:14:38.557Z,12.29
2023-01-04T14:17:31.717Z,12.39
2023-01-04T14:19:59.924Z,12.19
2023-01-04T14:22:27.723Z,12.44
2023-01-04T14:25:12.468Z,12.43
2023-01-04T14:27:41.357Z,12.60
2023-01-04T14:30:20.229Z,12.44
2023-01-04T14:32:56.453Z,12.45
2023-01-04T14:35:23.566Z,12.48
2023-01-04T14:37:50.678Z,12.54
2023-01-04T14:40:27.705Z,12.45
2023-01-04T14:42:54.789Z,12.55
2023-01-04T14:45:21.437Z,12.43
2023-01-04T14:47:48.142Z,12.52
2023-01-04T14:50:17.641Z,12.62
2023-01-04T14:52:54.144Z,12.55
2023-01-04T14:55:23.230Z,12.63
2023-01-04T14:57:49.765Z,12.48
2023-01-04T15:00:19.892Z,12.47
2023-01-04T15:02:50.846Z,12.44
2023-01-04T15:05:20.249Z,12.63
2023-01-04T15:07:47.475Z,12.66
2023-01-04T15:10:35.796Z,12.61
2023-01-04T15:13:04.400Z,12.60
2023-01-04T15:15:33.400Z,12.68
2023-01-04T15:18:00.047Z,12.56
2023-01-04T15:20:26.680Z,12.54
2023-01-04T15:23:33.807Z,12.49
2023-01-04T15:30:25.853Z,12.68
2023-01-04T15:32:52.370Z,12.77
2023-01-04T15:35:19.020Z,12.90
2023-01-04T15:37:46.946Z,12.80
2023-01-04T15:40:16.549Z,12.62
2023-01-04T15:43:42.845Z,12.84
2023-01-04T15:46:09.531Z,12.66
2023-01-04T15:48:36.708Z,12.72
2023-01-04T15:51:07.546Z,12.76
2023-01-04T15:53:35.035Z,12.81
2023-01-04T15:56:08.241Z,12.68
2023-01-04T15:58:35.527Z,12.61
2023-01-04T16:01:13.052Z,12.63
2023-01-04T16:03:40.361Z,12.51
2023-01-04T16:06:17.393Z,12.65
2023-01-04T16:08:44.556Z,12.66
2023-01-04T16:15:02.042Z,12.52
2023-01-04T16:17:28.671Z,12.72
2023-01-04T16:19:55.341Z,12.62
2023-01-04T16:22:21.988Z,12.65
2023-01-04T16:28:00.729Z,12.76
2023-01-04T16:30:33.984Z,12.63
2023-01-04T16:33:26.033Z,12.84
2023-01-04T16:36:04.552Z,12.78
2023-01-04T16:38:31.436Z,12.81
2023-01-04T16:41:02.516Z,12.68
2023-01-04T16:43:30.567Z,12.71
2023-01-04T16:46:19.625Z,12.74
2023-01-04T16:51:47.504Z,12.55
2023-01-04T16:54:16.038Z,12.74
2023-01-04T16:56:43.889Z,12.80
2023-01-04T16:59:18.626Z,12.74
2023-01-04T17:01:51.338Z,12.88
2023-01-04T17:05:12.707Z,12.71
2023-01-04T17:07:39.814Z,12.69
2023-01-04T17:10:15.878Z,12.84
2023-01-04T17:12:47.545Z,12.81
2023-01-04T17:18:30.249Z,12.79
2023-01-04T17:21:33.082Z,12.74
2023-01-04T17:25:15.075Z,12.78
2023-01-04T17:27:41.769Z,12.74
2023-01-04T17:30:09.182Z,12.87
2023-01-04T17:32:35.874Z,12.73
2023-01-04T17:35:02.429Z,12.72
2023-01-04T17:37:29.014Z,12.82
2023-01-04T17:39:55.588Z,12.86
2023-01-04T17:42:23.017Z,12.77
2023-01-04T17:44:49.695Z,12.70
2023-01-04T17:47:26.816Z,12.56
2023-01-04T17:49:53.835Z,12.80
2023-01-04T17:52:27.407Z,12.83
2023-01-04T17:55:01.442Z,12.74
2023-01-04T17:58:01.507Z,12.62
2023-01-04T18:00:57.925Z,12.65
2023-01-04T18:03:46.536Z,12.72
2023-01-04T18:06:38.879Z,12.82
2023-01-04T18:09:37.719Z,12.72
2023-01-04T18:12:04.647Z,12.87
2023-01-04T18:14:33.656Z,12.80
2023-01-04T18:17:00.280Z,12.85
2023-01-04T18:19:29.923Z,12.73
2023-01-04T18:21:57.224Z,12.79
2023-01-04T18:24:39.888Z,12.76
2023-01-04T18:27:26.197Z,12.73
2023-01-04T18:29:57.094Z,12.79
2023-01-04T18:32:48.474Z,12.77
2023-01-04T18:35:15.173Z,12.73
2023-01-04T18:37:43.837Z,12.86
2023-01-04T18:40:11.387Z,12.66
2023-01-04T18:42:38.151Z,12.85
2023-01-04T18:45:05.268Z,12.77
2023-01-04T18:47:32.638Z,12.69
2023-01-04T18:49:59.151Z,12.80
2023-01-04T18:52:25.800Z,12.86
2023-01-04T18:54:52.319Z,12.81
2023-01-04T18:57:19.186Z,12.82
2023-01-04T18:59:49.850Z,12.93
2023-01-04T19:02:19.601Z,12.92
2023-01-04T19:04:46.683Z,12.84
2023-01-04T19:07:13.287Z,12.75
2023-01-04T19:09:39.857Z,12.79
2023-01-04T19:12:06.611Z,12.81
2023-01-04T19:14:33.304Z,12.76
2023-01-04T19:16:59.929Z,12.85
2023-01-04T19:19:26.560Z,12.75
2023-01-04T19:21:53.849Z,12.55
2023-01-04T19:24:20.500Z,12.63
2023-01-04T19:26:47.212Z,12.78
2023-01-04T19:29:13.764Z,12.70
2023-01-04T19:31:40.436Z,12.80
2023-01-04T19:34:08.988Z,12.81
2023-01-04T19:36:36.107Z,12.65
2023-01-04T19:39:09.041Z,12.64
2023-01-04T19:41:37.858Z,12.70
2023-01-04T19:44:07.663Z,12.74
2023-01-04T19:46:34.656Z,12.65
2023-01-04T19:49:01.397Z,12.60
2023-01-04T19:51:28.150Z,12.54
2023-01-04T19:53:55.746Z,12.54
2023-01-04T19:56:22.571Z,12.50
2023-01-04T19:58:49.687Z,12.43
2023-01-04T20:01:18.356Z,12.54
2023-01-04T20:03:45.468Z,12.57
2023-01-04T20:09:09.824Z,12.57
2023-01-04T20:11:36.402Z,12.38
2023-01-04T20:14:02.908Z,12.15
2023-01-04T20:16:29.521Z,12.04
2023-01-04T20:18:57.640Z,11.99
2023-01-04T20:21:24.284Z,11.87
2023-01-04T20:23:50.864Z,12.26
2023-01-04T20:26:18.775Z,11.71
2023-01-04T20:28:45.943Z,11.42
2023-01-04T20:31:15.776Z,11.40
2023-01-04T20:33:42.561Z,11.28
2023-01-04T20:36:15.090Z,11.38
2023-01-04T20:38:44.017Z,11.38
2023-01-04T20:41:14.258Z,11.46
2023-01-04T20:43:40.922Z,11.44
2023-01-04T20:46:13.484Z,11.63
2023-01-04T20:48:41.499Z,11.47
2023-01-04T20:51:13.604Z,11.72
2023-01-04T20:53:40.325Z,11.52
2023-01-04T20:56:10.992Z,11.42
2023-01-04T20:58:38.596Z,11.37
2023-01-04T21:01:06.704Z,11.44
2023-01-04T21:03:34.655Z,11.34
2023-01-04T21:06:03.395Z,11.37
2023-01-04T21:08:30.359Z,11.45
2023-01-04T21:10:57.281Z,11.46
2023-01-04T21:13:24.449Z,11.41
2023-01-04T21:15:51.419Z,11.62
2023-01-04T21:18:18.031Z,11.41
2023-01-04T21:20:45.028Z,11.31
2023-01-04T21:23:16.635Z,11.33
2023-01-04T21:25:47.993Z,11.46
2023-01-04T21:28:15.812Z,11.30
2023-01-04T21:30:44.207Z,11.64
2023-01-04T21:33:14.578Z,11.46
2023-01-04T21:35:41.801Z,11.36
2023-01-04T21:38:08.864Z,11.45
2023-01-04T21:40:39.438Z,11.45
2023-01-04T21:43:06.676Z,11.51
2023-01-04T21:45:38.927Z,11.57
2023-01-04T21:48:06.185Z,11.46
2023-01-04T21:50:33.088Z,11.37
2023-01-04T21:53:07.309Z,11.44
2023-01-04T21:55:35.355Z,11.66
2023-01-04T21:58:02.644Z,11.53
2023-01-04T22:00:29.327Z,11.43
2023-01-04T22:02:55.938Z,11.66
2023-01-04T22:05:29.533Z,11.71
2023-01-04T22:07:59.051Z,11.53
2023-01-04T22:10:25.623Z,11.53
2023-01-04T22:12:52.159Z,11.67
2023-01-04T22:15:19.020Z,11.84
2023-01-04T22:17:46.243Z,11.57
2023-01-04T22:20:13.456Z,11.61
2023-01-04T22:22:40.100Z,11.44
2023-01-04T22:25:06.957Z,11.55
2023-01-04T22:27:33.522Z,11.66
2023-01-04T22:30:00.123Z,11.62
2023-01-04T22:32:26.655Z,11.41
2023-01-04T22:34:53.228Z,11.51
2023-01-04T22:37:19.799Z,11.67
2023-01-04T22:39:46.596Z,11.47
2023-01-04T22:42:13.930Z,11.56
2023-01-04T22:44:40.566Z,11.53
2023-01-04T22:47:09.993Z,11.73
2023-01-04T22:49:38.260Z,11.62
2023-01-04T22:52:06.074Z,11.56
2023-01-04T22:54:33.045Z,11.54
2023-01-04T22:57:00.290Z,11.58
2023-01-04T22:59:27.029Z,11.64
2023-01-04T23:01:54.030Z,11.59
2023-01-04T23:04:20.799Z,11.59
2023-01-04T23:06:48.970Z,11.69
2023-01-04T23:09:18.124Z,11.59
2023-01-04T23:11:45.188Z,11.80
2023-01-04T23:14:14.943Z,11.63
2023-01-04T23:16:42.221Z,11.80
2023-01-04T23:19:10.126Z,11.68
2023-01-04T23:21:36.944Z,11.66
2023-01-04T23:24:04.779Z,11.76
2023-01-04T23:26:32.128Z,11.76
2023-01-04T23:29:00.810Z,11.84
2023-01-04T23:31:29.234Z,11.75
2023-01-04T23:33:58.499Z,11.63
2023-01-04T23:36:28.647Z,11.73
2023-01-04T23:38:57.872Z,11.63
2023-01-04T23:41:44.293Z,11.71
2023-01-04T23:47:07.445Z,11.72
2023-01-04T23:49:36.271Z,11.60
2023-01-04T23:52:04.552Z,11.69
2023-01-04T23:54:31.582Z,11.67
2023-01-04T23:57:00.329Z,11.63
2023-01-04T23:59:27.351Z,11.55
